sensor_id;sensor_type;location;lat;lon;timestamp;P1;durP1;ratioP1;P2;durP2;ratioP2
31061;SDS011;17724;53.546;9.974;2023-11-21T00:03:59;13.83;;;7.70;;
31061;SDS011;17724;53.546;9.974;2023-11-21T00:08:01;12.87;;;6.40;;
31061;SDS011;17724;53.546;9.974;2023-11-21T00:12:02;13.90;;;7.13;;
31061;SDS011;17724;53.546;9.974;2023-11-21T00:16:03;13.60;;;6.70;;
31061;SDS011;17724;53.546;9.974;2023-11-21T00:20:05;14.40;;;8.20;;
31061;SDS011;17724;53.546;9.974;2023-11-21T00:24:06;12.20;;;6.00;;
31061;SDS011;17724;53.546;9.974;2023-11-21T00:28:07;12.60;;;6.10;;
31061;SDS011;17724;53.546;9.974;2023-11-21T00:32:08;12.83;;;6.60;;
31061;SDS011;17724;53.546;9.974;2023-11-21T00:36:09;11.37;;;5.50;;
31061;SDS011;17724;53.546;9.974;2023-11-21T00:40:11;11.73;;;5.60;;
31061;SDS011;17724;53.546;9.974;2023-11-21T00:44:12;12.27;;;6.17;;
31061;SDS011;17724;53.546;9.974;2023-11-21T00:48:13;12.20;;;6.20;;
31061;SDS011;17724;53.546;9.974;2023-11-21T00:52:13;12.57;;;6.57;;
31061;SDS011;17724;53.546;9.974;2023-11-21T00:56:14;13.50;;;6.90;;
31061;SDS011;17724;53.546;9.974;2023-11-21T01:00:16;13.27;;;7.50;;
31061;SDS011;17724;53.546;9.974;2023-11-21T01:04:17;15.10;;;8.70;;
31061;SDS011;17724;53.546;9.974;2023-11-21T01:08:18;15.87;;;8.93;;
31061;SDS011;17724;53.546;9.974;2023-11-21T01:12:18;16.27;;;9.63;;
31061;SDS011;17724;53.546;9.974;2023-11-21T01:16:19;16.33;;;9.27;;
31061;SDS011;17724;53.546;9.974;2023-11-21T01:20:19;19.30;;;10.43;;
31061;SDS011;17724;53.546;9.974;2023-11-21T01:24:21;17.23;;;10.73;;
31061;SDS011;17724;53.546;9.974;2023-11-21T01:28:21;16.40;;;10.13;;
31061;SDS011;17724;53.546;9.974;2023-11-21T01:32:22;18.70;;;10.60;;
31061;SDS011;17724;53.546;9.974;2023-11-21T01:36:22;17.60;;;10.43;;
31061;SDS011;17724;53.546;9.974;2023-11-21T01:40:23;18.13;;;10.87;;
31061;SDS011;17724;53.546;9.974;2023-11-21T01:44:24;16.60;;;10.07;;
31061;SDS011;17724;53.546;9.974;2023-11-21T01:48:25;16.73;;;9.90;;
31061;SDS011;17724;53.546;9.974;2023-11-21T01:52:27;16.50;;;9.57;;
31061;SDS011;17724;53.546;9.974;2023-11-21T01:56:29;15.53;;;8.93;;
31061;SDS011;17724;53.546;9.974;2023-11-21T02:00:31;13.10;;;7.20;;
31061;SDS011;17724;53.546;9.974;2023-11-21T02:04:33;11.57;;;6.30;;
31061;SDS011;17724;53.546;9.974;2023-11-21T02:08:34;12.90;;;6.80;;
31061;SDS011;17724;53.546;9.974;2023-11-21T02:12:35;12.67;;;6.37;;
31061;SDS011;17724;53.546;9.974;2023-11-21T02:16:36;12.90;;;6.63;;
31061;SDS011;17724;53.546;9.974;2023-11-21T02:20:37;10.57;;;5.00;;
31061;SDS011;17724;53.546;9.974;2023-11-21T02:24:40;12.33;;;5.83;;
31061;SDS011;17724;53.546;9.974;2023-11-21T02:28:42;13.17;;;6.67;;
31061;SDS011;17724;53.546;9.974;2023-11-21T02:32:43;11.20;;;4.87;;
31061;SDS011;17724;53.546;9.974;2023-11-21T02:36:44;10.50;;;4.87;;
31061;SDS011;17724;53.546;9.974;2023-11-21T02:40:46;12.37;;;5.10;;
31061;SDS011;17724;53.546;9.974;2023-11-21T02:44:46;10.87;;;5.20;;
31061;SDS011;17724;53.546;9.974;2023-11-21T02:48:46;10.27;;;4.47;;
31061;SDS011;17724;53.546;9.974;2023-11-21T02:52:47;11.70;;;5.77;;
31061;SDS011;17724;53.546;9.974;2023-11-21T02:56:48;11.27;;;5.43;;
31061;SDS011;17724;53.546;9.974;2023-11-21T03:00:49;11.13;;;5.50;;
31061;SDS011;17724;53.546;9.974;2023-11-21T03:04:50;12.17;;;6.00;;
31061;SDS011;17724;53.546;9.974;2023-11-21T03:08:50;11.37;;;5.40;;
31061;SDS011;17724;53.546;9.974;2023-11-21T03:12:51;11.93;;;6.30;;
31061;SDS011;17724;53.546;9.974;2023-11-21T03:16:51;12.07;;;5.93;;
31061;SDS011;17724;53.546;9.974;2023-11-21T03:20:52;13.30;;;6.13;;
31061;SDS011;17724;53.546;9.974;2023-11-21T03:24:53;10.83;;;5.30;;
31061;SDS011;17724;53.546;9.974;2023-11-21T03:28:54;12.67;;;6.10;;
31061;SDS011;17724;53.546;9.974;2023-11-21T03:32:54;12.43;;;6.10;;
31061;SDS011;17724;53.546;9.974;2023-11-21T03:36:55;11.73;;;5.53;;
31061;SDS011;17724;53.546;9.974;2023-11-21T03:40:55;11.30;;;5.50;;
31061;SDS011;17724;53.546;9.974;2023-11-21T03:44:56;11.37;;;5.67;;
31061;SDS011;17724;53.546;9.974;2023-11-21T03:48:56;10.93;;;5.10;;
31061;SDS011;17724;53.546;9.974;2023-11-21T03:52:56;11.07;;;5.50;;
31061;SDS011;17724;53.546;9.974;2023-11-21T03:56:57;12.00;;;6.00;;
31061;SDS011;17724;53.546;9.974;2023-11-21T04:00:57;10.50;;;5.00;;
31061;SDS011;17724;53.546;9.974;2023-11-21T04:04:58;11.20;;;5.20;;
31061;SDS011;17724;53.546;9.974;2023-11-21T04:08:58;11.17;;;5.27;;
31061;SDS011;17724;53.546;9.974;2023-11-21T04:12:59;11.80;;;6.20;;
31061;SDS011;17724;53.546;9.974;2023-11-21T04:17:00;11.47;;;5.80;;
31061;SDS011;17724;53.546;9.974;2023-11-21T04:21:01;13.23;;;6.23;;
31061;SDS011;17724;53.546;9.974;2023-11-21T04:25:01;11.60;;;5.63;;
31061;SDS011;17724;53.546;9.974;2023-11-21T04:29:02;11.47;;;5.53;;
31061;SDS011;17724;53.546;9.974;2023-11-21T04:33:02;11.40;;;5.57;;
31061;SDS011;17724;53.546;9.974;2023-11-21T04:37:03;11.70;;;6.13;;
31061;SDS011;17724;53.546;9.974;2023-11-21T04:41:06;12.10;;;5.70;;
31061;SDS011;17724;53.546;9.974;2023-11-21T04:45:07;11.47;;;5.90;;
31061;SDS011;17724;53.546;9.974;2023-11-21T04:49:09;11.93;;;6.20;;
31061;SDS011;17724;53.546;9.974;2023-11-21T04:53:11;12.67;;;5.70;;
31061;SDS011;17724;53.546;9.974;2023-11-21T04:57:14;11.17;;;6.07;;
31061;SDS011;17724;53.546;9.974;2023-11-21T05:01:14;11.00;;;5.47;;
31061;SDS011;17724;53.546;9.974;2023-11-21T05:05:15;11.80;;;6.40;;
31061;SDS011;17724;53.546;9.974;2023-11-21T05:09:15;12.10;;;6.70;;
31061;SDS011;17724;53.546;9.974;2023-11-21T05:13:16;12.97;;;6.80;;
31061;SDS011;17724;53.546;9.974;2023-11-21T05:17:17;11.33;;;6.30;;
31061;SDS011;17724;53.546;9.974;2023-11-21T05:21:17;11.20;;;5.70;;
31061;SDS011;17724;53.546;9.974;2023-11-21T05:25:21;11.90;;;5.87;;
31061;SDS011;17724;53.546;9.974;2023-11-21T05:29:22;11.90;;;6.30;;
31061;SDS011;17724;53.546;9.974;2023-11-21T05:33:22;11.83;;;6.53;;
31061;SDS011;17724;53.546;9.974;2023-11-21T05:37:23;12.10;;;6.20;;
31061;SDS011;17724;53.546;9.974;2023-11-21T05:41:23;13.90;;;6.67;;
31061;SDS011;17724;53.546;9.974;2023-11-21T05:45:24;12.00;;;6.43;;
31061;SDS011;17724;53.546;9.974;2023-11-21T05:49:24;12.73;;;6.30;;
31061;SDS011;17724;53.546;9.974;2023-11-21T05:53:26;12.90;;;6.20;;
31061;SDS011;17724;53.546;9.974;2023-11-21T05:57:27;13.57;;;5.80;;
31061;SDS011;17724;53.546;9.974;2023-11-21T06:01:27;12.40;;;5.50;;
31061;SDS011;17724;53.546;9.974;2023-11-21T06:05:28;11.70;;;5.33;;
31061;SDS011;17724;53.546;9.974;2023-11-21T06:09:28;11.50;;;5.73;;
31061;SDS011;17724;53.546;9.974;2023-11-21T06:13:29;12.00;;;6.50;;
31061;SDS011;17724;53.546;9.974;2023-11-21T06:17:33;13.00;;;6.83;;
31061;SDS011;17724;53.546;9.974;2023-11-21T06:21:37;11.40;;;5.47;;
31061;SDS011;17724;53.546;9.974;2023-11-21T06:25:38;11.20;;;6.17;;
31061;SDS011;17724;53.546;9.974;2023-11-21T06:29:40;12.03;;;6.10;;
31061;SDS011;17724;53.546;9.974;2023-11-21T06:33:42;12.23;;;6.40;;
31061;SDS011;17724;53.546;9.974;2023-11-21T06:37:43;12.60;;;6.90;;
31061;SDS011;17724;53.546;9.974;2023-11-21T06:41:49;12.07;;;6.00;;
31061;SDS011;17724;53.546;9.974;2023-11-21T06:45:52;11.63;;;5.70;;
31061;SDS011;17724;53.546;9.974;2023-11-21T06:49:53;11.67;;;6.97;;
31061;SDS011;17724;53.546;9.974;2023-11-21T06:53:53;11.77;;;6.40;;
31061;SDS011;17724;53.546;9.974;2023-11-21T06:57:54;11.37;;;5.70;;
31061;SDS011;17724;53.546;9.974;2023-11-21T07:01:54;13.73;;;7.53;;
31061;SDS011;17724;53.546;9.974;2023-11-21T07:05:55;12.40;;;6.40;;
31061;SDS011;17724;53.546;9.974;2023-11-21T07:09:56;11.70;;;6.20;;
31061;SDS011;17724;53.546;9.974;2023-11-21T07:13:56;11.50;;;5.87;;
31061;SDS011;17724;53.546;9.974;2023-11-21T07:17:56;12.33;;;6.30;;
31061;SDS011;17724;53.546;9.974;2023-11-21T07:21:57;13.07;;;6.87;;
31061;SDS011;17724;53.546;9.974;2023-11-21T07:25:57;12.47;;;7.00;;
31061;SDS011;17724;53.546;9.974;2023-11-21T07:29:58;11.50;;;6.73;;
31061;SDS011;17724;53.546;9.974;2023-11-21T07:33:58;13.40;;;6.10;;
31061;SDS011;17724;53.546;9.974;2023-11-21T07:37:59;12.27;;;6.27;;
31061;SDS011;17724;53.546;9.974;2023-11-21T07:41:59;12.50;;;6.43;;
31061;SDS011;17724;53.546;9.974;2023-11-21T07:46:00;11.10;;;5.37;;
31061;SDS011;17724;53.546;9.974;2023-11-21T07:50:03;11.00;;;6.03;;
31061;SDS011;17724;53.546;9.974;2023-11-21T07:54:03;10.60;;;5.60;;
31061;SDS011;17724;53.546;9.974;2023-11-21T07:58:05;11.27;;;5.50;;
31061;SDS011;17724;53.546;9.974;2023-11-21T08:02:06;11.53;;;5.63;;
31061;SDS011;17724;53.546;9.974;2023-11-21T08:06:07;11.47;;;6.00;;
31061;SDS011;17724;53.546;9.974;2023-11-21T08:10:08;10.83;;;5.10;;
31061;SDS011;17724;53.546;9.974;2023-11-21T08:14:10;10.10;;;4.90;;
31061;SDS011;17724;53.546;9.974;2023-11-21T08:18:10;10.40;;;4.90;;
31061;SDS011;17724;53.546;9.974;2023-11-21T08:22:11;11.57;;;5.13;;
31061;SDS011;17724;53.546;9.974;2023-11-21T08:26:12;11.33;;;5.03;;
31061;SDS011;17724;53.546;9.974;2023-11-21T08:30:13;10.30;;;4.60;;
31061;SDS011;17724;53.546;9.974;2023-11-21T08:34:14;10.67;;;4.80;;
31061;SDS011;17724;53.546;9.974;2023-11-21T08:38:15;10.87;;;5.00;;
31061;SDS011;17724;53.546;9.974;2023-11-21T08:42:15;11.47;;;4.80;;
31061;SDS011;17724;53.546;9.974;2023-11-21T08:46:16;10.70;;;4.27;;
31061;SDS011;17724;53.546;9.974;2023-11-21T08:50:20;10.00;;;4.27;;
31061;SDS011;17724;53.546;9.974;2023-11-21T08:54:20;9.30;;;3.80;;
31061;SDS011;17724;53.546;9.974;2023-11-21T08:58:21;10.13;;;4.40;;
31061;SDS011;17724;53.546;9.974;2023-11-21T09:02:22;9.70;;;4.07;;
31061;SDS011;17724;53.546;9.974;2023-11-21T09:06:23;9.50;;;3.53;;
31061;SDS011;17724;53.546;9.974;2023-11-21T09:10:24;9.87;;;3.60;;
31061;SDS011;17724;53.546;9.974;2023-11-21T09:14:25;10.57;;;4.00;;
31061;SDS011;17724;53.546;9.974;2023-11-21T09:18:26;9.60;;;3.90;;
31061;SDS011;17724;53.546;9.974;2023-11-21T09:22:26;9.20;;;3.40;;
31061;SDS011;17724;53.546;9.974;2023-11-21T09:26:27;9.77;;;3.37;;
31061;SDS011;17724;53.546;9.974;2023-11-21T09:30:27;9.23;;;3.67;;
31061;SDS011;17724;53.546;9.974;2023-11-21T09:34:28;9.60;;;3.73;;
31061;SDS011;17724;53.546;9.974;2023-11-21T09:38:28;8.90;;;3.30;;
31061;SDS011;17724;53.546;9.974;2023-11-21T09:42:30;9.83;;;3.10;;
31061;SDS011;17724;53.546;9.974;2023-11-21T09:46:43;10.10;;;2.90;;
31061;SDS011;17724;53.546;9.974;2023-11-21T09:50:45;9.50;;;3.43;;
31061;SDS011;17724;53.546;9.974;2023-11-21T09:54:47;12.77;;;4.33;;
31061;SDS011;17724;53.546;9.974;2023-11-21T09:58:52;10.70;;;3.10;;
31061;SDS011;17724;53.546;9.974;2023-11-21T10:02:53;9.30;;;2.70;;
31061;SDS011;17724;53.546;9.974;2023-11-21T10:06:55;8.90;;;3.00;;
31061;SDS011;17724;53.546;9.974;2023-11-21T10:10:56;9.30;;;3.40;;
31061;SDS011;17724;53.546;9.974;2023-11-21T10:14:57;10.30;;;3.27;;
31061;SDS011;17724;53.546;9.974;2023-11-21T10:19:00;8.30;;;2.70;;
31061;SDS011;17724;53.546;9.974;2023-11-21T10:23:01;8.53;;;2.90;;
31061;SDS011;17724;53.546;9.974;2023-11-21T10:27:04;9.40;;;3.10;;
31061;SDS011;17724;53.546;9.974;2023-11-21T10:31:06;10.30;;;3.50;;
31061;SDS011;17724;53.546;9.974;2023-11-21T10:35:08;9.13;;;2.60;;
31061;SDS011;17724;53.546;9.974;2023-11-21T10:39:13;8.37;;;2.80;;
31061;SDS011;17724;53.546;9.974;2023-11-21T10:43:17;10.63;;;3.00;;
31061;SDS011;17724;53.546;9.974;2023-11-21T10:47:19;9.00;;;2.50;;
31061;SDS011;17724;53.546;9.974;2023-11-21T10:51:20;8.50;;;2.87;;
31061;SDS011;17724;53.546;9.974;2023-11-21T10:55:21;8.77;;;2.73;;
31061;SDS011;17724;53.546;9.974;2023-11-21T10:59:22;12.03;;;3.70;;
31061;SDS011;17724;53.546;9.974;2023-11-21T11:03:25;7.97;;;2.13;;
31061;SDS011;17724;53.546;9.974;2023-11-21T11:07:26;8.60;;;2.50;;
31061;SDS011;17724;53.546;9.974;2023-11-21T11:11:28;8.13;;;2.53;;
31061;SDS011;17724;53.546;9.974;2023-11-21T11:15:30;8.73;;;2.97;;
31061;SDS011;17724;53.546;9.974;2023-11-21T11:19:30;9.43;;;3.60;;
31061;SDS011;17724;53.546;9.974;2023-11-21T11:28:02;10.17;;;3.87;;
31061;SDS011;17724;53.546;9.974;2023-11-21T11:45:17;10.67;;;4.00;;
31061;SDS011;17724;53.546;9.974;2023-11-21T11:49:28;10.97;;;4.47;;
31061;SDS011;17724;53.546;9.974;2023-11-21T11:53:32;9.30;;;3.47;;
31061;SDS011;17724;53.546;9.974;2023-11-21T11:57:36;9.03;;;3.27;;
31061;SDS011;17724;53.546;9.974;2023-11-21T12:01:38;10.00;;;3.47;;
31061;SDS011;17724;53.546;9.974;2023-11-21T12:05:46;8.60;;;2.77;;
31061;SDS011;17724;53.546;9.974;2023-11-21T12:09:46;10.07;;;3.40;;
31061;SDS011;17724;53.546;9.974;2023-11-21T12:13:47;11.17;;;4.03;;
31061;SDS011;17724;53.546;9.974;2023-11-21T12:17:49;9.50;;;3.20;;
31061;SDS011;17724;53.546;9.974;2023-11-21T12:21:51;9.30;;;4.00;;
31061;SDS011;17724;53.546;9.974;2023-11-21T12:25:52;9.17;;;3.27;;
31061;SDS011;17724;53.546;9.974;2023-11-21T12:29:53;10.20;;;3.60;;
31061;SDS011;17724;53.546;9.974;2023-11-21T12:33:56;11.43;;;3.60;;
31061;SDS011;17724;53.546;9.974;2023-11-21T12:37:57;8.93;;;2.57;;
31061;SDS011;17724;53.546;9.974;2023-11-21T12:41:59;8.50;;;2.17;;
31061;SDS011;17724;53.546;9.974;2023-11-21T12:46:06;10.30;;;3.33;;
31061;SDS011;17724;53.546;9.974;2023-11-21T12:50:09;13.77;;;5.67;;
31061;SDS011;17724;53.546;9.974;2023-11-21T12:54:15;10.23;;;3.50;;
31061;SDS011;17724;53.546;9.974;2023-11-21T12:58:17;11.53;;;3.13;;
31061;SDS011;17724;53.546;9.974;2023-11-21T13:02:20;10.33;;;2.87;;
31061;SDS011;17724;53.546;9.974;2023-11-21T13:06:21;9.70;;;3.57;;
31061;SDS011;17724;53.546;9.974;2023-11-21T13:10:25;10.70;;;3.00;;
31061;SDS011;17724;53.546;9.974;2023-11-21T13:14:31;9.30;;;3.30;;
31061;SDS011;17724;53.546;9.974;2023-11-21T13:18:32;10.13;;;3.57;;
31061;SDS011;17724;53.546;9.974;2023-11-21T13:22:32;12.50;;;4.23;;
31061;SDS011;17724;53.546;9.974;2023-11-21T13:26:33;11.60;;;5.10;;
31061;SDS011;17724;53.546;9.974;2023-11-21T13:30:33;10.13;;;3.00;;
31061;SDS011;17724;53.546;9.974;2023-11-21T13:34:34;35.07;;;20.17;;
31061;SDS011;17724;53.546;9.974;2023-11-21T13:38:36;27.17;;;14.97;;
31061;SDS011;17724;53.546;9.974;2023-11-21T13:42:41;18.80;;;10.07;;
31061;SDS011;17724;53.546;9.974;2023-11-21T13:46:43;22.80;;;12.80;;
31061;SDS011;17724;53.546;9.974;2023-11-21T13:50:45;19.30;;;9.73;;
31061;SDS011;17724;53.546;9.974;2023-11-21T13:54:58;20.77;;;9.93;;
31061;SDS011;17724;53.546;9.974;2023-11-21T13:59:02;13.50;;;6.00;;
31061;SDS011;17724;53.546;9.974;2023-11-21T14:03:17;15.77;;;7.73;;
31061;SDS011;17724;53.546;9.974;2023-11-21T14:07:22;9.73;;;3.37;;
31061;SDS011;17724;53.546;9.974;2023-11-21T14:11:35;25.40;;;11.53;;
31061;SDS011;17724;53.546;9.974;2023-11-21T14:15:41;18.10;;;7.40;;
31061;SDS011;17724;53.546;9.974;2023-11-21T14:19:46;9.70;;;3.30;;
31061;SDS011;17724;53.546;9.974;2023-11-21T14:23:47;24.80;;;13.47;;
31061;SDS011;17724;53.546;9.974;2023-11-21T14:27:48;19.37;;;8.17;;
31061;SDS011;17724;53.546;9.974;2023-11-21T14:31:48;20.90;;;9.30;;
31061;SDS011;17724;53.546;9.974;2023-11-21T14:35:51;13.20;;;5.60;;
31061;SDS011;17724;53.546;9.974;2023-11-21T14:39:51;14.73;;;6.87;;
31061;SDS011;17724;53.546;9.974;2023-11-21T14:43:52;17.30;;;8.27;;
31061;SDS011;17724;53.546;9.974;2023-11-21T14:47:54;15.43;;;6.93;;
31061;SDS011;17724;53.546;9.974;2023-11-21T14:52:07;32.90;;;22.00;;
31061;SDS011;17724;53.546;9.974;2023-11-21T14:56:22;17.03;;;6.10;;
31061;SDS011;17724;53.546;9.974;2023-11-21T15:00:33;17.27;;;8.87;;
31061;SDS011;17724;53.546;9.974;2023-11-21T15:04:35;30.33;;;15.90;;
31061;SDS011;17724;53.546;9.974;2023-11-21T15:08:37;21.13;;;10.80;;
31061;SDS011;17724;53.546;9.974;2023-11-21T15:12:37;11.87;;;3.90;;
31061;SDS011;17724;53.546;9.974;2023-11-21T15:16:40;31.20;;;20.47;;
31061;SDS011;17724;53.546;9.974;2023-11-21T15:20:43;19.20;;;9.20;;
31061;SDS011;17724;53.546;9.974;2023-11-21T15:24:44;12.80;;;5.20;;
31061;SDS011;17724;53.546;9.974;2023-11-21T15:28:47;11.33;;;3.40;;
31061;SDS011;17724;53.546;9.974;2023-11-21T15:32:47;11.80;;;4.20;;
31061;SDS011;17724;53.546;9.974;2023-11-21T15:36:48;12.23;;;5.10;;
31061;SDS011;17724;53.546;9.974;2023-11-21T15:40:53;19.07;;;10.73;;
31061;SDS011;17724;53.546;9.974;2023-11-21T15:44:54;25.10;;;15.23;;
31061;SDS011;17724;53.546;9.974;2023-11-21T15:48:54;18.90;;;10.33;;
31061;SDS011;17724;53.546;9.974;2023-11-21T15:52:55;16.10;;;6.67;;
31061;SDS011;17724;53.546;9.974;2023-11-21T15:56:55;20.77;;;11.27;;
31061;SDS011;17724;53.546;9.974;2023-11-21T16:01:00;18.00;;;10.30;;
31061;SDS011;17724;53.546;9.974;2023-11-21T16:05:01;20.67;;;12.30;;
31061;SDS011;17724;53.546;9.974;2023-11-21T16:09:05;35.47;;;23.30;;
31061;SDS011;17724;53.546;9.974;2023-11-21T16:13:06;19.83;;;10.80;;
31061;SDS011;17724;53.546;9.974;2023-11-21T16:17:08;20.87;;;12.47;;
31061;SDS011;17724;53.546;9.974;2023-11-21T16:21:11;29.80;;;16.40;;
31061;SDS011;17724;53.546;9.974;2023-11-21T16:25:12;25.23;;;16.10;;
31061;SDS011;17724;53.546;9.974;2023-11-21T16:29:14;21.87;;;12.30;;
31061;SDS011;17724;53.546;9.974;2023-11-21T16:33:15;34.40;;;18.97;;
31061;SDS011;17724;53.546;9.974;2023-11-21T16:37:15;33.70;;;21.40;;
31061;SDS011;17724;53.546;9.974;2023-11-21T16:41:16;21.53;;;12.70;;
31061;SDS011;17724;53.546;9.974;2023-11-21T16:45:17;24.63;;;15.10;;
31061;SDS011;17724;53.546;9.974;2023-11-21T16:49:18;83.07;;;64.93;;
31061;SDS011;17724;53.546;9.974;2023-11-21T16:53:19;49.60;;;35.97;;
31061;SDS011;17724;53.546;9.974;2023-11-21T16:57:20;24.57;;;17.47;;
31061;SDS011;17724;53.546;9.974;2023-11-21T17:01:20;33.07;;;22.00;;
31061;SDS011;17724;53.546;9.974;2023-11-21T17:05:21;30.20;;;18.03;;
31061;SDS011;17724;53.546;9.974;2023-11-21T17:09:21;58.87;;;32.93;;
31061;SDS011;17724;53.546;9.974;2023-11-21T17:13:22;81.40;;;59.33;;
31061;SDS011;17724;53.546;9.974;2023-11-21T17:17:22;21.03;;;12.63;;
31061;SDS011;17724;53.546;9.974;2023-11-21T17:21:23;22.00;;;11.97;;
31061;SDS011;17724;53.546;9.974;2023-11-21T17:25:24;17.07;;;8.20;;
31061;SDS011;17724;53.546;9.974;2023-11-21T17:29:24;9.57;;;3.53;;
31061;SDS011;17724;53.546;9.974;2023-11-21T17:33:26;30.43;;;18.60;;
31061;SDS011;17724;53.546;9.974;2023-11-21T17:37:26;10.53;;;3.13;;
31061;SDS011;17724;53.546;9.974;2023-11-21T17:41:27;85.20;;;59.13;;
31061;SDS011;17724;53.546;9.974;2023-11-21T17:45:27;41.23;;;23.70;;
31061;SDS011;17724;53.546;9.974;2023-11-21T17:49:28;112.27;;;92.40;;
31061;SDS011;17724;53.546;9.974;2023-11-21T17:53:31;124.57;;;93.60;;
31061;SDS011;17724;53.546;9.974;2023-11-21T17:57:32;22.60;;;14.80;;
31061;SDS011;17724;53.546;9.974;2023-11-21T18:01:36;30.40;;;21.17;;
31061;SDS011;17724;53.546;9.974;2023-11-21T18:05:37;24.37;;;10.93;;
31061;SDS011;17724;53.546;9.974;2023-11-21T18:09:38;53.00;;;36.57;;
31061;SDS011;17724;53.546;9.974;2023-11-21T18:13:39;28.00;;;18.43;;
31061;SDS011;17724;53.546;9.974;2023-11-21T18:17:40;80.90;;;40.30;;
31061;SDS011;17724;53.546;9.974;2023-11-21T18:21:41;101.07;;;86.17;;
31061;SDS011;17724;53.546;9.974;2023-11-21T18:25:42;98.90;;;67.63;;
31061;SDS011;17724;53.546;9.974;2023-11-21T18:29:43;80.00;;;69.23;;
31061;SDS011;17724;53.546;9.974;2023-11-21T18:33:44;69.60;;;44.23;;
31061;SDS011;17724;53.546;9.974;2023-11-21T18:37:44;81.90;;;57.07;;
31061;SDS011;17724;53.546;9.974;2023-11-21T18:41:46;14.03;;;7.40;;
31061;SDS011;17724;53.546;9.974;2023-11-21T18:45:47;41.60;;;25.87;;
31061;SDS011;17724;53.546;9.974;2023-11-21T18:49:47;37.33;;;24.47;;
31061;SDS011;17724;53.546;9.974;2023-11-21T18:53:48;109.23;;;68.70;;
31061;SDS011;17724;53.546;9.974;2023-11-21T18:57:48;57.73;;;38.33;;
31061;SDS011;17724;53.546;9.974;2023-11-21T19:01:49;63.57;;;44.67;;
31061;SDS011;17724;53.546;9.974;2023-11-21T19:05:49;128.17;;;107.93;;
31061;SDS011;17724;53.546;9.974;2023-11-21T19:09:49;25.03;;;16.80;;
31061;SDS011;17724;53.546;9.974;2023-11-21T19:13:51;16.50;;;7.63;;
31061;SDS011;17724;53.546;9.974;2023-11-21T19:17:53;34.70;;;23.47;;
31061;SDS011;17724;53.546;9.974;2023-11-21T19:21:53;17.80;;;9.87;;
31061;SDS011;17724;53.546;9.974;2023-11-21T19:25:54;29.47;;;19.33;;
31061;SDS011;17724;53.546;9.974;2023-11-21T19:29:54;36.17;;;18.63;;
31061;SDS011;17724;53.546;9.974;2023-11-21T19:33:55;12.37;;;4.60;;
31061;SDS011;17724;53.546;9.974;2023-11-21T19:37:55;25.77;;;15.47;;
31061;SDS011;17724;53.546;9.974;2023-11-21T19:41:57;40.10;;;21.67;;
31061;SDS011;17724;53.546;9.974;2023-11-21T19:45:57;31.73;;;18.13;;
31061;SDS011;17724;53.546;9.974;2023-11-21T19:49:59;21.13;;;11.00;;
31061;SDS011;17724;53.546;9.974;2023-11-21T19:53:59;11.80;;;5.47;;
31061;SDS011;17724;53.546;9.974;2023-11-21T19:58:00;37.53;;;20.30;;
31061;SDS011;17724;53.546;9.974;2023-11-21T20:02:02;19.43;;;9.53;;
31061;SDS011;17724;53.546;9.974;2023-11-21T20:06:03;57.40;;;34.80;;
31061;SDS011;17724;53.546;9.974;2023-11-21T20:10:05;54.63;;;37.43;;
31061;SDS011;17724;53.546;9.974;2023-11-21T20:14:07;28.00;;;16.70;;
31061;SDS011;17724;53.546;9.974;2023-11-21T20:18:07;28.83;;;20.30;;
31061;SDS011;17724;53.546;9.974;2023-11-21T20:22:08;24.40;;;15.80;;
31061;SDS011;17724;53.546;9.974;2023-11-21T20:26:08;23.23;;;11.97;;
31061;SDS011;17724;53.546;9.974;2023-11-21T20:30:09;31.83;;;19.40;;
31061;SDS011;17724;53.546;9.974;2023-11-21T20:34:10;25.83;;;11.27;;
31061;SDS011;17724;53.546;9.974;2023-11-21T20:38:10;11.83;;;3.93;;
31061;SDS011;17724;53.546;9.974;2023-11-21T20:42:14;15.97;;;9.53;;
31061;SDS011;17724;53.546;9.974;2023-11-21T20:46:15;18.67;;;12.50;;
31061;SDS011;17724;53.546;9.974;2023-11-21T20:50:16;21.67;;;14.03;;
31061;SDS011;17724;53.546;9.974;2023-11-21T20:54:17;33.20;;;21.60;;
31061;SDS011;17724;53.546;9.974;2023-11-21T20:58:18;17.50;;;10.33;;
31061;SDS011;17724;53.546;9.974;2023-11-21T21:02:18;13.70;;;7.60;;
31061;SDS011;17724;53.546;9.974;2023-11-21T21:06:19;12.73;;;6.43;;
31061;SDS011;17724;53.546;9.974;2023-11-21T21:10:21;31.40;;;18.50;;
31061;SDS011;17724;53.546;9.974;2023-11-21T21:14:22;18.00;;;7.40;;
31061;SDS011;17724;53.546;9.974;2023-11-21T21:18:26;13.20;;;5.67;;
31061;SDS011;17724;53.546;9.974;2023-11-21T21:22:27;16.87;;;10.27;;
31061;SDS011;17724;53.546;9.974;2023-11-21T21:26:27;17.47;;;10.00;;
31061;SDS011;17724;53.546;9.974;2023-11-21T21:30:28;12.00;;;6.97;;
31061;SDS011;17724;53.546;9.974;2023-11-21T21:34:28;10.60;;;4.70;;
31061;SDS011;17724;53.546;9.974;2023-11-21T21:38:29;9.43;;;3.07;;
31061;SDS011;17724;53.546;9.974;2023-11-21T21:42:30;9.20;;;2.23;;
31061;SDS011;17724;53.546;9.974;2023-11-21T21:46:31;8.47;;;2.13;;
31061;SDS011;17724;53.546;9.974;2023-11-21T21:50:32;8.10;;;1.90;;
31061;SDS011;17724;53.546;9.974;2023-11-21T21:54:33;9.97;;;2.13;;
31061;SDS011;17724;53.546;9.974;2023-11-21T21:58:33;10.60;;;2.23;;
31061;SDS011;17724;53.546;9.974;2023-11-21T22:02:35;8.47;;;2.07;;
31061;SDS011;17724;53.546;9.974;2023-11-21T22:06:35;8.80;;;2.23;;
31061;SDS011;17724;53.546;9.974;2023-11-21T22:10:36;8.73;;;2.27;;
31061;SDS011;17724;53.546;9.974;2023-11-21T22:14:37;8.47;;;2.23;;
31061;SDS011;17724;53.546;9.974;2023-11-21T22:18:37;9.67;;;2.43;;
31061;SDS011;17724;53.546;9.974;2023-11-21T22:22:38;9.37;;;2.30;;
31061;SDS011;17724;53.546;9.974;2023-11-21T22:26:40;8.00;;;1.70;;
31061;SDS011;17724;53.546;9.974;2023-11-21T22:30:40;9.43;;;2.40;;
31061;SDS011;17724;53.546;9.974;2023-11-21T22:34:41;9.23;;;2.60;;
31061;SDS011;17724;53.546;9.974;2023-11-21T22:38:42;8.80;;;2.23;;
31061;SDS011;17724;53.546;9.974;2023-11-21T22:42:43;8.83;;;2.20;;
31061;SDS011;17724;53.546;9.974;2023-11-21T22:46:44;8.57;;;1.97;;
31061;SDS011;17724;53.546;9.974;2023-11-21T22:50:44;8.70;;;2.07;;
31061;SDS011;17724;53.546;9.974;2023-11-21T22:54:47;8.63;;;2.10;;
31061;SDS011;17724;53.546;9.974;2023-11-21T22:58:47;10.20;;;3.37;;
31061;SDS011;17724;53.546;9.974;2023-11-21T23:02:48;10.73;;;2.17;;
31061;SDS011;17724;53.546;9.974;2023-11-21T23:06:49;8.93;;;2.40;;
31061;SDS011;17724;53.546;9.974;2023-11-21T23:10:50;11.37;;;2.70;;
31061;SDS011;17724;53.546;9.974;2023-11-21T23:14:50;9.00;;;1.90;;
31061;SDS011;17724;53.546;9.974;2023-11-21T23:18:50;8.63;;;2.33;;
31061;SDS011;17724;53.546;9.974;2023-11-21T23:22:52;10.40;;;2.77;;
31061;SDS011;17724;53.546;9.974;2023-11-21T23:26:53;8.90;;;1.97;;
31061;SDS011;17724;53.546;9.974;2023-11-21T23:30:53;9.20;;;2.60;;
31061;SDS011;17724;53.546;9.974;2023-11-21T23:34:54;11.70;;;2.97;;
31061;SDS011;17724;53.546;9.974;2023-11-21T23:38:54;9.23;;;2.63;;
31061;SDS011;17724;53.546;9.974;2023-11-21T23:42:55;9.17;;;2.60;;
31061;SDS011;17724;53.546;9.974;2023-11-21T23:46:55;9.03;;;1.60;;
31061;SDS011;17724;53.546;9.974;2023-11-21T23:50:56;9.10;;;2.50;;
31061;SDS011;17724;53.546;9.974;2023-11-21T23:54:56;8.50;;;2.23;;
31061;SDS011;17724;53.546;9.974;2023-11-21T23:58:57;8.80;;;2.30;;
